sensor_id;sensor_type;location;lat;lon;timestamp;P1;durP1;ratioP1;P2;durP2;ratioP2
47669;SDS011;33408;52.062;11.722;2023-02-28T00:02:23;10.82;;;6.40;;
47669;SDS011;33408;52.062;11.722;2023-02-28T00:04:49;10.80;;;5.90;;
47669;SDS011;33408;52.062;11.722;2023-02-28T00:07:18;8.32;;;5.35;;
47669;SDS011;33408;52.062;11.722;2023-02-28T00:09:44;8.48;;;5.35;;
47669;SDS011;33408;52.062;11.722;2023-02-28T00:12:11;8.88;;;5.57;;
47669;SDS011;33408;52.062;11.722;2023-02-28T00:14:38;9.13;;;5.47;;
47669;SDS011;33408;52.062;11.722;2023-02-28T00:17:06;11.95;;;5.50;;
47669;SDS011;33408;52.062;11.722;2023-02-28T00:19:32;12.80;;;5.47;;
47669;SDS011;33408;52.062;11.722;2023-02-28T00:21:59;7.45;;;4.72;;
47669;SDS011;33408;52.062;11.722;2023-02-28T00:24:26;9.98;;;5.15;;
47669;SDS011;33408;52.062;11.722;2023-02-28T00:26:52;8.68;;;4.68;;
47669;SDS011;33408;52.062;11.722;2023-02-28T00:29:19;7.07;;;4.07;;
47669;SDS011;33408;52.062;11.722;2023-02-28T00:31:45;7.45;;;4.00;;
47669;SDS011;33408;52.062;11.722;2023-02-28T00:34:13;7.30;;;4.22;;
47669;SDS011;33408;52.062;11.722;2023-02-28T00:36:40;8.70;;;4.45;;
47669;SDS011;33408;52.062;11.722;2023-02-28T00:39:10;7.07;;;3.53;;
47669;SDS011;33408;52.062;11.722;2023-02-28T00:41:37;9.68;;;3.85;;
47669;SDS011;33408;52.062;11.722;2023-02-28T00:44:03;10.82;;;3.80;;
47669;SDS011;33408;52.062;11.722;2023-02-28T00:46:30;8.38;;;3.92;;
47669;SDS011;33408;52.062;11.722;2023-02-28T00:48:57;7.72;;;4.10;;
47669;SDS011;33408;52.062;11.722;2023-02-28T00:51:24;8.65;;;3.53;;
47669;SDS011;33408;52.062;11.722;2023-02-28T00:53:51;6.65;;;3.55;;
47669;SDS011;33408;52.062;11.722;2023-02-28T00:56:18;9.77;;;4.03;;
47669;SDS011;33408;52.062;11.722;2023-02-28T00:58:44;8.70;;;4.22;;
47669;SDS011;33408;52.062;11.722;2023-02-28T01:01:11;9.40;;;4.13;;
47669;SDS011;33408;52.062;11.722;2023-02-28T01:03:37;9.02;;;4.03;;
47669;SDS011;33408;52.062;11.722;2023-02-28T01:06:04;7.80;;;3.75;;
47669;SDS011;33408;52.062;11.722;2023-02-28T01:08:32;11.20;;;4.47;;
47669;SDS011;33408;52.062;11.722;2023-02-28T01:11:06;6.63;;;3.75;;
47669;SDS011;33408;52.062;11.722;2023-02-28T01:13:33;9.98;;;3.90;;
47669;SDS011;33408;52.062;11.722;2023-02-28T01:16:00;7.70;;;4.32;;
47669;SDS011;33408;52.062;11.722;2023-02-28T01:18:27;9.25;;;4.35;;
47669;SDS011;33408;52.062;11.722;2023-02-28T01:20:53;8.40;;;4.35;;
47669;SDS011;33408;52.062;11.722;2023-02-28T01:23:20;6.80;;;3.78;;
47669;SDS011;33408;52.062;11.722;2023-02-28T01:25:50;8.18;;;3.85;;
47669;SDS011;33408;52.062;11.722;2023-02-28T01:28:16;8.32;;;4.35;;
47669;SDS011;33408;52.062;11.722;2023-02-28T01:30:46;11.05;;;4.75;;
47669;SDS011;33408;52.062;11.722;2023-02-28T01:33:14;7.97;;;4.63;;
47669;SDS011;33408;52.062;11.722;2023-02-28T01:35:40;8.60;;;4.45;;
47669;SDS011;33408;52.062;11.722;2023-02-28T01:38:07;8.07;;;4.43;;
47669;SDS011;33408;52.062;11.722;2023-02-28T01:40:34;8.63;;;4.05;;
47669;SDS011;33408;52.062;11.722;2023-02-28T01:43:02;9.07;;;4.20;;
47669;SDS011;33408;52.062;11.722;2023-02-28T01:45:29;6.45;;;3.63;;
47669;SDS011;33408;52.062;11.722;2023-02-28T01:47:57;7.40;;;4.15;;
47669;SDS011;33408;52.062;11.722;2023-02-28T01:50:29;9.13;;;4.97;;
47669;SDS011;33408;52.062;11.722;2023-02-28T01:53:02;8.15;;;4.18;;
47669;SDS011;33408;52.062;11.722;2023-02-28T01:55:33;9.15;;;5.28;;
47669;SDS011;33408;52.062;11.722;2023-02-28T01:58:02;14.48;;;6.60;;
47669;SDS011;33408;52.062;11.722;2023-02-28T02:00:32;10.73;;;5.00;;
47669;SDS011;33408;52.062;11.722;2023-02-28T02:02:59;8.35;;;4.68;;
47669;SDS011;33408;52.062;11.722;2023-02-28T02:05:31;9.48;;;5.07;;
47669;SDS011;33408;52.062;11.722;2023-02-28T02:08:01;6.82;;;4.20;;
47669;SDS011;33408;52.062;11.722;2023-02-28T02:10:31;9.65;;;4.80;;
47669;SDS011;33408;52.062;11.722;2023-02-28T02:13:21;8.90;;;4.78;;
47669;SDS011;33408;52.062;11.722;2023-02-28T02:16:11;6.85;;;3.67;;
47669;SDS011;33408;52.062;11.722;2023-02-28T02:18:50;8.77;;;4.35;;
47669;SDS011;33408;52.062;11.722;2023-02-28T02:24:33;11.98;;;5.45;;
47669;SDS011;33408;52.062;11.722;2023-02-28T02:27:24;10.00;;;4.43;;
47669;SDS011;33408;52.062;11.722;2023-02-28T02:36:03;8.68;;;4.68;;
47669;SDS011;33408;52.062;11.722;2023-02-28T02:38:38;9.88;;;4.95;;
47669;SDS011;33408;52.062;11.722;2023-02-28T02:41:13;12.68;;;6.13;;
47669;SDS011;33408;52.062;11.722;2023-02-28T02:43:44;8.45;;;4.88;;
47669;SDS011;33408;52.062;11.722;2023-02-28T02:46:17;8.65;;;4.93;;
47669;SDS011;33408;52.062;11.722;2023-02-28T02:48:46;13.00;;;6.80;;
47669;SDS011;33408;52.062;11.722;2023-02-28T02:51:18;11.02;;;5.07;;
47669;SDS011;33408;52.062;11.722;2023-02-28T02:53:48;12.65;;;5.00;;
47669;SDS011;33408;52.062;11.722;2023-02-28T02:56:19;10.02;;;5.57;;
47669;SDS011;33408;52.062;11.722;2023-02-28T02:58:49;10.95;;;5.50;;
47669;SDS011;33408;52.062;11.722;2023-02-28T03:01:20;9.57;;;6.43;;
47669;SDS011;33408;52.062;11.722;2023-02-28T03:03:54;9.93;;;6.18;;
47669;SDS011;33408;52.062;11.722;2023-02-28T03:06:24;12.38;;;6.20;;
47669;SDS011;33408;52.062;11.722;2023-02-28T03:08:51;16.67;;;6.80;;
47669;SDS011;33408;52.062;11.722;2023-02-28T03:11:19;10.05;;;5.00;;
47669;SDS011;33408;52.062;11.722;2023-02-28T03:16:42;9.32;;;5.00;;
47669;SDS011;33408;52.062;11.722;2023-02-28T03:19:31;10.82;;;5.22;;
47669;SDS011;33408;52.062;11.722;2023-02-28T03:22:12;10.43;;;5.32;;
47669;SDS011;33408;52.062;11.722;2023-02-28T03:24:44;10.13;;;4.60;;
47669;SDS011;33408;52.062;11.722;2023-02-28T03:27:16;7.13;;;4.38;;
47669;SDS011;33408;52.062;11.722;2023-02-28T03:29:50;11.52;;;5.40;;
47669;SDS011;33408;52.062;11.722;2023-02-28T03:32:26;9.82;;;5.10;;
47669;SDS011;33408;52.062;11.722;2023-02-28T03:34:56;8.70;;;4.57;;
47669;SDS011;33408;52.062;11.722;2023-02-28T03:37:31;6.93;;;4.40;;
47669;SDS011;33408;52.062;11.722;2023-02-28T03:40:02;9.70;;;5.30;;
47669;SDS011;33408;52.062;11.722;2023-02-28T03:42:38;8.25;;;5.13;;
47669;SDS011;33408;52.062;11.722;2023-02-28T03:45:09;8.77;;;4.70;;
47669;SDS011;33408;52.062;11.722;2023-02-28T03:47:39;8.40;;;4.60;;
47669;SDS011;33408;52.062;11.722;2023-02-28T03:50:11;9.98;;;4.90;;
47669;SDS011;33408;52.062;11.722;2023-02-28T03:52:44;9.75;;;5.30;;
47669;SDS011;33408;52.062;11.722;2023-02-28T03:55:16;8.15;;;4.78;;
47669;SDS011;33408;52.062;11.722;2023-02-28T03:57:47;7.22;;;4.50;;
47669;SDS011;33408;52.062;11.722;2023-02-28T04:00:28;10.15;;;5.40;;
47669;SDS011;33408;52.062;11.722;2023-02-28T04:02:57;8.60;;;4.72;;
47669;SDS011;33408;52.062;11.722;2023-02-28T04:05:24;9.68;;;4.70;;
47669;SDS011;33408;52.062;11.722;2023-02-28T04:07:54;8.63;;;4.97;;
47669;SDS011;33408;52.062;11.722;2023-02-28T04:10:29;9.50;;;5.10;;
47669;SDS011;33408;52.062;11.722;2023-02-28T04:12:55;9.30;;;5.72;;
47669;SDS011;33408;52.062;11.722;2023-02-28T04:15:22;14.60;;;7.20;;
47669;SDS011;33408;52.062;11.722;2023-02-28T04:17:49;12.30;;;6.15;;
47669;SDS011;33408;52.062;11.722;2023-02-28T04:20:16;13.65;;;6.18;;
47669;SDS011;33408;52.062;11.722;2023-02-28T04:22:43;9.20;;;5.25;;
47669;SDS011;33408;52.062;11.722;2023-02-28T04:25:11;13.30;;;9.45;;
47669;SDS011;33408;52.062;11.722;2023-02-28T04:27:37;11.07;;;5.80;;
47669;SDS011;33408;52.062;11.722;2023-02-28T04:30:04;9.40;;;5.15;;
47669;SDS011;33408;52.062;11.722;2023-02-28T04:32:32;8.15;;;5.00;;
47669;SDS011;33408;52.062;11.722;2023-02-28T04:34:58;10.38;;;5.20;;
47669;SDS011;33408;52.062;11.722;2023-02-28T04:37:25;9.38;;;4.78;;
47669;SDS011;33408;52.062;11.722;2023-02-28T04:39:54;8.38;;;5.00;;
47669;SDS011;33408;52.062;11.722;2023-02-28T04:42:22;10.02;;;4.72;;
47669;SDS011;33408;52.062;11.722;2023-02-28T04:44:49;10.10;;;5.13;;
47669;SDS011;33408;52.062;11.722;2023-02-28T04:47:15;7.45;;;4.22;;
47669;SDS011;33408;52.062;11.722;2023-02-28T04:49:42;9.88;;;5.07;;
47669;SDS011;33408;52.062;11.722;2023-02-28T04:52:08;7.95;;;4.88;;
47669;SDS011;33408;52.062;11.722;2023-02-28T04:54:35;10.80;;;5.90;;
47669;SDS011;33408;52.062;11.722;2023-02-28T04:57:03;8.20;;;4.93;;
47669;SDS011;33408;52.062;11.722;2023-02-28T04:59:32;10.20;;;5.95;;
47669;SDS011;33408;52.062;11.722;2023-02-28T05:01:58;10.95;;;6.00;;
47669;SDS011;33408;52.062;11.722;2023-02-28T05:04:25;13.40;;;5.60;;
47669;SDS011;33408;52.062;11.722;2023-02-28T05:06:52;6.95;;;4.43;;
47669;SDS011;33408;52.062;11.722;2023-02-28T05:09:18;9.75;;;4.78;;
47669;SDS011;33408;52.062;11.722;2023-02-28T05:11:45;7.00;;;4.00;;
47669;SDS011;33408;52.062;11.722;2023-02-28T05:14:12;9.68;;;5.53;;
47669;SDS011;33408;52.062;11.722;2023-02-28T05:16:41;8.82;;;4.97;;
47669;SDS011;33408;52.062;11.722;2023-02-28T05:19:08;9.43;;;5.30;;
47669;SDS011;33408;52.062;11.722;2023-02-28T05:21:35;11.27;;;5.93;;
47669;SDS011;33408;52.062;11.722;2023-02-28T05:24:04;11.98;;;5.60;;
47669;SDS011;33408;52.062;11.722;2023-02-28T05:26:34;8.13;;;4.68;;
47669;SDS011;33408;52.062;11.722;2023-02-28T05:29:01;8.35;;;5.28;;
47669;SDS011;33408;52.062;11.722;2023-02-28T05:31:28;10.93;;;5.80;;
47669;SDS011;33408;52.062;11.722;2023-02-28T05:33:56;11.50;;;6.28;;
47669;SDS011;33408;52.062;11.722;2023-02-28T05:36:22;10.25;;;6.05;;
47669;SDS011;33408;52.062;11.722;2023-02-28T05:38:50;8.45;;;5.05;;
47669;SDS011;33408;52.062;11.722;2023-02-28T05:41:18;10.00;;;4.55;;
47669;SDS011;33408;52.062;11.722;2023-02-28T05:43:45;11.85;;;5.40;;
47669;SDS011;33408;52.062;11.722;2023-02-28T05:46:12;9.15;;;5.05;;
47669;SDS011;33408;52.062;11.722;2023-02-28T05:48:39;11.82;;;4.90;;
47669;SDS011;33408;52.062;11.722;2023-02-28T05:51:09;9.63;;;4.88;;
47669;SDS011;33408;52.062;11.722;2023-02-28T05:53:35;7.55;;;4.70;;
47669;SDS011;33408;52.062;11.722;2023-02-28T05:56:02;9.80;;;5.18;;
47669;SDS011;33408;52.062;11.722;2023-02-28T05:58:29;10.48;;;5.50;;
47669;SDS011;33408;52.062;11.722;2023-02-28T06:00:56;10.15;;;5.43;;
47669;SDS011;33408;52.062;11.722;2023-02-28T06:03:23;8.60;;;5.28;;
47669;SDS011;33408;52.062;11.722;2023-02-28T06:05:51;14.80;;;5.10;;
47669;SDS011;33408;52.062;11.722;2023-02-28T06:08:19;8.57;;;5.70;;
47669;SDS011;33408;52.062;11.722;2023-02-28T06:10:46;8.48;;;4.97;;
47669;SDS011;33408;52.062;11.722;2023-02-28T06:13:12;8.73;;;4.45;;
47669;SDS011;33408;52.062;11.722;2023-02-28T06:15:39;8.50;;;4.55;;
47669;SDS011;33408;52.062;11.722;2023-02-28T06:18:06;7.72;;;4.75;;
47669;SDS011;33408;52.062;11.722;2023-02-28T06:20:32;8.93;;;4.20;;
47669;SDS011;33408;52.062;11.722;2023-02-28T06:22:59;13.30;;;5.07;;
47669;SDS011;33408;52.062;11.722;2023-02-28T06:25:27;7.93;;;4.40;;
47669;SDS011;33408;52.062;11.722;2023-02-28T06:27:54;8.55;;;4.75;;
47669;SDS011;33408;52.062;11.722;2023-02-28T06:30:21;9.20;;;4.82;;
47669;SDS011;33408;52.062;11.722;2023-02-28T06:32:50;9.43;;;5.57;;
47669;SDS011;33408;52.062;11.722;2023-02-28T06:35:17;9.48;;;5.35;;
47669;SDS011;33408;52.062;11.722;2023-02-28T06:37:43;10.15;;;4.75;;
47669;SDS011;33408;52.062;11.722;2023-02-28T06:40:10;9.10;;;5.30;;
47669;SDS011;33408;52.062;11.722;2023-02-28T06:42:39;8.98;;;5.05;;
47669;SDS011;33408;52.062;11.722;2023-02-28T06:45:06;11.07;;;4.50;;
47669;SDS011;33408;52.062;11.722;2023-02-28T06:47:34;8.55;;;4.88;;
47669;SDS011;33408;52.062;11.722;2023-02-28T06:50:01;9.38;;;5.30;;
47669;SDS011;33408;52.062;11.722;2023-02-28T06:52:28;7.80;;;4.93;;
47669;SDS011;33408;52.062;11.722;2023-02-28T06:54:54;8.25;;;4.93;;
47669;SDS011;33408;52.062;11.722;2023-02-28T06:57:27;11.02;;;4.68;;
47669;SDS011;33408;52.062;11.722;2023-02-28T06:59:57;10.38;;;5.43;;
47669;SDS011;33408;52.062;11.722;2023-02-28T07:02:24;9.88;;;5.30;;
47669;SDS011;33408;52.062;11.722;2023-02-28T07:04:50;10.55;;;5.65;;
47669;SDS011;33408;52.062;11.722;2023-02-28T07:07:17;10.15;;;5.30;;
47669;SDS011;33408;52.062;11.722;2023-02-28T07:09:43;10.05;;;5.28;;
47669;SDS011;33408;52.062;11.722;2023-02-28T07:12:10;9.63;;;5.60;;
47669;SDS011;33408;52.062;11.722;2023-02-28T07:14:37;8.63;;;5.35;;
47669;SDS011;33408;52.062;11.722;2023-02-28T07:17:05;9.85;;;5.47;;
47669;SDS011;33408;52.062;11.722;2023-02-28T07:19:33;8.63;;;5.05;;
47669;SDS011;33408;52.062;11.722;2023-02-28T07:21:59;10.32;;;6.22;;
47669;SDS011;33408;52.062;11.722;2023-02-28T07:24:27;11.60;;;5.90;;
47669;SDS011;33408;52.062;11.722;2023-02-28T07:26:54;12.07;;;6.05;;
47669;SDS011;33408;52.062;11.722;2023-02-28T07:29:21;9.77;;;5.07;;
47669;SDS011;33408;52.062;11.722;2023-02-28T07:31:47;17.70;;;5.78;;
47669;SDS011;33408;52.062;11.722;2023-02-28T07:34:16;12.70;;;5.95;;
47669;SDS011;33408;52.062;11.722;2023-02-28T07:36:43;8.85;;;5.30;;
47669;SDS011;33408;52.062;11.722;2023-02-28T07:39:10;15.90;;;6.07;;
47669;SDS011;33408;52.062;11.722;2023-02-28T07:41:36;9.65;;;5.32;;
47669;SDS011;33408;52.062;11.722;2023-02-28T07:44:08;10.30;;;6.25;;
47669;SDS011;33408;52.062;11.722;2023-02-28T07:46:35;9.05;;;5.65;;
47669;SDS011;33408;52.062;11.722;2023-02-28T07:49:01;10.70;;;5.32;;
47669;SDS011;33408;52.062;11.722;2023-02-28T07:51:30;9.32;;;5.20;;
47669;SDS011;33408;52.062;11.722;2023-02-28T07:53:57;12.15;;;7.20;;
47669;SDS011;33408;52.062;11.722;2023-02-28T07:56:23;11.25;;;5.72;;
47669;SDS011;33408;52.062;11.722;2023-02-28T07:58:53;11.23;;;5.75;;
47669;SDS011;33408;52.062;11.722;2023-02-28T08:01:20;10.45;;;5.88;;
47669;SDS011;33408;52.062;11.722;2023-02-28T08:03:46;8.20;;;5.20;;
47669;SDS011;33408;52.062;11.722;2023-02-28T08:06:17;8.85;;;5.07;;
47669;SDS011;33408;52.062;11.722;2023-02-28T08:08:46;12.43;;;5.65;;
47669;SDS011;33408;52.062;11.722;2023-02-28T08:11:14;11.77;;;5.82;;
47669;SDS011;33408;52.062;11.722;2023-02-28T08:13:41;8.93;;;5.47;;
47669;SDS011;33408;52.062;11.722;2023-02-28T08:16:09;10.98;;;5.85;;
47669;SDS011;33408;52.062;11.722;2023-02-28T08:18:36;8.98;;;5.25;;
47669;SDS011;33408;52.062;11.722;2023-02-28T08:21:05;10.90;;;5.32;;
47669;SDS011;33408;52.062;11.722;2023-02-28T08:23:32;9.38;;;5.20;;
47669;SDS011;33408;52.062;11.722;2023-02-28T08:26:01;10.25;;;4.95;;
47669;SDS011;33408;52.062;11.722;2023-02-28T08:28:28;9.38;;;4.63;;
47669;SDS011;33408;52.062;11.722;2023-02-28T08:30:55;8.80;;;5.57;;
47669;SDS011;33408;52.062;11.722;2023-02-28T08:33:21;15.50;;;7.68;;
47669;SDS011;33408;52.062;11.722;2023-02-28T08:35:51;9.20;;;5.28;;
47669;SDS011;33408;52.062;11.722;2023-02-28T08:38:19;8.88;;;4.50;;
47669;SDS011;33408;52.062;11.722;2023-02-28T08:40:45;11.63;;;5.00;;
47669;SDS011;33408;52.062;11.722;2023-02-28T08:43:13;9.15;;;4.82;;
47669;SDS011;33408;52.062;11.722;2023-02-28T08:45:40;7.93;;;4.72;;
47669;SDS011;33408;52.062;11.722;2023-02-28T08:48:06;8.38;;;4.78;;
47669;SDS011;33408;52.062;11.722;2023-02-28T08:50:33;7.90;;;4.05;;
47669;SDS011;33408;52.062;11.722;2023-02-28T08:53:00;10.23;;;4.25;;
47669;SDS011;33408;52.062;11.722;2023-02-28T08:55:26;8.20;;;3.75;;
47669;SDS011;33408;52.062;11.722;2023-02-28T08:57:53;7.20;;;3.53;;
47669;SDS011;33408;52.062;11.722;2023-02-28T09:00:22;7.65;;;3.28;;
47669;SDS011;33408;52.062;11.722;2023-02-28T09:02:49;5.85;;;2.88;;
47669;SDS011;33408;52.062;11.722;2023-02-28T09:05:15;6.45;;;2.67;;
47669;SDS011;33408;52.062;11.722;2023-02-28T09:07:42;6.10;;;3.33;;
47669;SDS011;33408;52.062;11.722;2023-02-28T09:10:09;5.00;;;2.60;;
47669;SDS011;33408;52.062;11.722;2023-02-28T09:12:36;6.15;;;2.50;;
47669;SDS011;33408;52.062;11.722;2023-02-28T09:15:03;7.55;;;3.28;;
47669;SDS011;33408;52.062;11.722;2023-02-28T09:17:32;7.25;;;3.53;;
47669;SDS011;33408;52.062;11.722;2023-02-28T09:19:59;7.47;;;3.25;;
47669;SDS011;33408;52.062;11.722;2023-02-28T09:22:25;5.25;;;2.47;;
47669;SDS011;33408;52.062;11.722;2023-02-28T09:24:52;5.80;;;2.42;;
47669;SDS011;33408;52.062;11.722;2023-02-28T09:27:18;6.82;;;2.70;;
47669;SDS011;33408;52.062;11.722;2023-02-28T09:29:45;6.30;;;2.90;;
47669;SDS011;33408;52.062;11.722;2023-02-28T09:32:11;6.32;;;2.85;;
47669;SDS011;33408;52.062;11.722;2023-02-28T09:34:39;4.32;;;2.08;;
47669;SDS011;33408;52.062;11.722;2023-02-28T09:37:06;6.10;;;2.47;;
47669;SDS011;33408;52.062;11.722;2023-02-28T09:39:33;7.30;;;2.72;;
47669;SDS011;33408;52.062;11.722;2023-02-28T09:41:59;6.68;;;2.63;;
47669;SDS011;33408;52.062;11.722;2023-02-28T09:44:29;5.13;;;2.10;;
47669;SDS011;33408;52.062;11.722;2023-02-28T09:47:00;4.75;;;1.98;;
47669;SDS011;33408;52.062;11.722;2023-02-28T09:49:33;5.50;;;2.20;;
47669;SDS011;33408;52.062;11.722;2023-02-28T09:52:06;6.32;;;2.30;;
47669;SDS011;33408;52.062;11.722;2023-02-28T09:54:36;6.38;;;2.05;;
47669;SDS011;33408;52.062;11.722;2023-02-28T09:57:06;6.22;;;2.88;;
47669;SDS011;33408;52.062;11.722;2023-02-28T09:59:44;6.80;;;2.97;;
47669;SDS011;33408;52.062;11.722;2023-02-28T10:02:31;5.38;;;2.70;;
47669;SDS011;33408;52.062;11.722;2023-02-28T10:05:09;7.22;;;3.25;;
47669;SDS011;33408;52.062;11.722;2023-02-28T10:07:45;5.15;;;2.20;;
47669;SDS011;33408;52.062;11.722;2023-02-28T10:10:21;5.68;;;2.58;;
47669;SDS011;33408;52.062;11.722;2023-02-28T10:12:51;6.07;;;2.53;;
47669;SDS011;33408;52.062;11.722;2023-02-28T10:15:19;5.43;;;2.65;;
47669;SDS011;33408;52.062;11.722;2023-02-28T10:17:49;6.22;;;2.72;;
47669;SDS011;33408;52.062;11.722;2023-02-28T10:20:21;8.30;;;3.50;;
47669;SDS011;33408;52.062;11.722;2023-02-28T10:22:58;6.80;;;2.88;;
47669;SDS011;33408;52.062;11.722;2023-02-28T10:25:32;5.80;;;2.88;;
47669;SDS011;33408;52.062;11.722;2023-02-28T10:28:01;7.40;;;2.72;;
47669;SDS011;33408;52.062;11.722;2023-02-28T10:30:36;7.55;;;3.38;;
47669;SDS011;33408;52.062;11.722;2023-02-28T10:33:08;6.95;;;3.65;;
47669;SDS011;33408;52.062;11.722;2023-02-28T10:35:45;6.90;;;3.08;;
47669;SDS011;33408;52.062;11.722;2023-02-28T10:38:15;5.40;;;2.97;;
47669;SDS011;33408;52.062;11.722;2023-02-28T10:40:43;5.95;;;2.85;;
47669;SDS011;33408;52.062;11.722;2023-02-28T10:43:21;6.32;;;3.47;;
47669;SDS011;33408;52.062;11.722;2023-02-28T10:45:53;8.18;;;3.83;;
47669;SDS011;33408;52.062;11.722;2023-02-28T10:48:27;7.85;;;4.03;;
47669;SDS011;33408;52.062;11.722;2023-02-28T10:50:58;6.28;;;3.53;;
47669;SDS011;33408;52.062;11.722;2023-02-28T10:53:30;7.15;;;3.65;;
47669;SDS011;33408;52.062;11.722;2023-02-28T10:55:59;7.40;;;3.50;;
47669;SDS011;33408;52.062;11.722;2023-02-28T10:58:29;11.05;;;4.82;;
47669;SDS011;33408;52.062;11.722;2023-02-28T11:00:57;7.43;;;3.83;;
47669;SDS011;33408;52.062;11.722;2023-02-28T11:03:28;9.90;;;3.50;;
47669;SDS011;33408;52.062;11.722;2023-02-28T11:05:56;6.53;;;3.33;;
47669;SDS011;33408;52.062;11.722;2023-02-28T11:08:24;7.22;;;3.47;;
47669;SDS011;33408;52.062;11.722;2023-02-28T11:10:55;7.10;;;3.47;;
47669;SDS011;33408;52.062;11.722;2023-02-28T11:13:25;7.72;;;3.75;;
47669;SDS011;33408;52.062;11.722;2023-02-28T11:15:55;7.72;;;3.33;;
47669;SDS011;33408;52.062;11.722;2023-02-28T11:18:24;5.85;;;3.05;;
47669;SDS011;33408;52.062;11.722;2023-02-28T11:20:55;6.78;;;3.05;;
47669;SDS011;33408;52.062;11.722;2023-02-28T11:23:26;6.35;;;2.92;;
47669;SDS011;33408;52.062;11.722;2023-02-28T11:25:56;8.50;;;4.10;;
47669;SDS011;33408;52.062;11.722;2023-02-28T11:28:27;7.43;;;3.60;;
47669;SDS011;33408;52.062;11.722;2023-02-28T11:31:00;8.52;;;3.33;;
47669;SDS011;33408;52.062;11.722;2023-02-28T11:33:28;10.27;;;2.97;;
47669;SDS011;33408;52.062;11.722;2023-02-28T11:35:57;5.07;;;2.45;;
47669;SDS011;33408;52.062;11.722;2023-02-28T11:38:27;6.07;;;3.00;;
47669;SDS011;33408;52.062;11.722;2023-02-28T11:41:02;5.18;;;2.78;;
47669;SDS011;33408;52.062;11.722;2023-02-28T11:43:42;6.93;;;2.80;;
47669;SDS011;33408;52.062;11.722;2023-02-28T11:46:21;5.38;;;2.58;;
47669;SDS011;33408;52.062;11.722;2023-02-28T11:48:55;5.70;;;2.90;;
47669;SDS011;33408;52.062;11.722;2023-02-28T11:51:30;5.43;;;2.55;;
47669;SDS011;33408;52.062;11.722;2023-02-28T11:54:07;7.22;;;2.60;;
47669;SDS011;33408;52.062;11.722;2023-02-28T11:56:51;5.97;;;2.75;;
47669;SDS011;33408;52.062;11.722;2023-02-28T11:59:27;6.45;;;2.88;;
47669;SDS011;33408;52.062;11.722;2023-02-28T12:04:46;5.97;;;3.00;;
47669;SDS011;33408;52.062;11.722;2023-02-28T12:07:22;7.32;;;3.08;;
47669;SDS011;33408;52.062;11.722;2023-02-28T12:09:58;5.78;;;2.85;;
47669;SDS011;33408;52.062;11.722;2023-02-28T12:12:37;7.07;;;2.92;;
47669;SDS011;33408;52.062;11.722;2023-02-28T12:15:17;11.27;;;4.70;;
47669;SDS011;33408;52.062;11.722;2023-02-28T12:18:00;5.68;;;2.90;;
47669;SDS011;33408;52.062;11.722;2023-02-28T12:20:41;5.53;;;2.40;;
47669;SDS011;33408;52.062;11.722;2023-02-28T12:25:55;7.53;;;3.70;;
47669;SDS011;33408;52.062;11.722;2023-02-28T12:28:30;6.35;;;2.90;;
47669;SDS011;33408;52.062;11.722;2023-02-28T12:31:01;7.13;;;2.80;;
47669;SDS011;33408;52.062;11.722;2023-02-28T12:33:34;5.78;;;3.15;;
47669;SDS011;33408;52.062;11.722;2023-02-28T12:36:05;6.03;;;2.97;;
47669;SDS011;33408;52.062;11.722;2023-02-28T12:38:38;6.35;;;3.03;;
47669;SDS011;33408;52.062;11.722;2023-02-28T12:41:09;5.60;;;2.63;;
47669;SDS011;33408;52.062;11.722;2023-02-28T12:46:10;7.35;;;3.15;;
47669;SDS011;33408;52.062;11.722;2023-02-28T12:48:39;6.40;;;2.80;;
47669;SDS011;33408;52.062;11.722;2023-02-28T12:51:08;6.40;;;3.03;;
47669;SDS011;33408;52.062;11.722;2023-02-28T12:53:41;5.60;;;2.90;;
47669;SDS011;33408;52.062;11.722;2023-02-28T12:56:16;6.97;;;3.70;;
47669;SDS011;33408;52.062;11.722;2023-02-28T12:58:51;8.77;;;3.30;;
47669;SDS011;33408;52.062;11.722;2023-02-28T13:01:35;7.22;;;3.35;;
47669;SDS011;33408;52.062;11.722;2023-02-28T13:04:24;7.97;;;3.70;;
47669;SDS011;33408;52.062;11.722;2023-02-28T13:07:10;5.53;;;2.67;;
47669;SDS011;33408;52.062;11.722;2023-02-28T13:09:51;5.60;;;3.10;;
47669;SDS011;33408;52.062;11.722;2023-02-28T13:14:49;13.30;;;5.68;;
47669;SDS011;33408;52.062;11.722;2023-02-28T13:17:17;6.70;;;3.60;;
47669;SDS011;33408;52.062;11.722;2023-02-28T13:19:46;6.95;;;3.65;;
47669;SDS011;33408;52.062;11.722;2023-02-28T13:22:36;6.40;;;3.17;;
47669;SDS011;33408;52.062;11.722;2023-02-28T13:28:08;7.00;;;3.38;;
47669;SDS011;33408;52.062;11.722;2023-02-28T13:33:32;6.45;;;3.08;;
47669;SDS011;33408;52.062;11.722;2023-02-28T13:36:06;6.10;;;3.55;;
47669;SDS011;33408;52.062;11.722;2023-02-28T13:38:36;6.40;;;3.33;;
47669;SDS011;33408;52.062;11.722;2023-02-28T13:44:10;11.00;;;4.55;;
47669;SDS011;33408;52.062;11.722;2023-02-28T13:49:46;9.07;;;3.92;;
47669;SDS011;33408;52.062;11.722;2023-02-28T13:52:14;7.50;;;3.63;;
47669;SDS011;33408;52.062;11.722;2023-02-28T13:54:56;10.00;;;3.93;;
47669;SDS011;33408;52.062;11.722;2023-02-28T13:57:50;6.88;;;3.00;;
47669;SDS011;33408;52.062;11.722;2023-02-28T14:00:35;7.70;;;3.30;;
47669;SDS011;33408;52.062;11.722;2023-02-28T14:03:15;7.28;;;3.38;;
47669;SDS011;33408;52.062;11.722;2023-02-28T14:06:14;7.25;;;3.13;;
47669;SDS011;33408;52.062;11.722;2023-02-28T14:08:45;8.00;;;3.25;;
47669;SDS011;33408;52.062;11.722;2023-02-28T14:11:26;8.20;;;3.22;;
47669;SDS011;33408;52.062;11.722;2023-02-28T14:13:54;6.00;;;2.65;;
47669;SDS011;33408;52.062;11.722;2023-02-28T14:16:21;6.10;;;3.13;;
47669;SDS011;33408;52.062;11.722;2023-02-28T14:18:51;7.90;;;2.90;;
47669;SDS011;33408;52.062;11.722;2023-02-28T14:21:26;7.20;;;3.30;;
47669;SDS011;33408;52.062;11.722;2023-02-28T14:27:01;8.77;;;3.50;;
47669;SDS011;33408;52.062;11.722;2023-02-28T14:30:02;7.65;;;3.83;;
47669;SDS011;33408;52.062;11.722;2023-02-28T14:32:41;6.25;;;3.13;;
47669;SDS011;33408;52.062;11.722;2023-02-28T14:35:17;10.00;;;4.15;;
47669;SDS011;33408;52.062;11.722;2023-02-28T14:37:54;6.57;;;3.45;;
47669;SDS011;33408;52.062;11.722;2023-02-28T14:40:23;6.68;;;3.28;;
47669;SDS011;33408;52.062;11.722;2023-02-28T14:42:55;8.10;;;3.72;;
47669;SDS011;33408;52.062;11.722;2023-02-28T14:45:24;6.95;;;3.65;;
47669;SDS011;33408;52.062;11.722;2023-02-28T14:47:55;7.20;;;3.58;;
47669;SDS011;33408;52.062;11.722;2023-02-28T14:50:24;6.53;;;3.72;;
47669;SDS011;33408;52.062;11.722;2023-02-28T14:52:56;10.27;;;3.70;;
47669;SDS011;33408;52.062;11.722;2023-02-28T14:55:24;8.18;;;4.32;;
47669;SDS011;33408;52.062;11.722;2023-02-28T14:57:55;7.32;;;3.72;;
47669;SDS011;33408;52.062;11.722;2023-02-28T15:00:24;7.15;;;3.92;;
47669;SDS011;33408;52.062;11.722;2023-02-28T15:02:52;7.00;;;3.45;;
47669;SDS011;33408;52.062;11.722;2023-02-28T15:05:25;7.13;;;4.18;;
47669;SDS011;33408;52.062;11.722;2023-02-28T15:08:05;7.10;;;3.25;;
47669;SDS011;33408;52.062;11.722;2023-02-28T15:10:38;9.65;;;4.00;;
47669;SDS011;33408;52.062;11.722;2023-02-28T15:13:06;8.40;;;3.72;;
47669;SDS011;33408;52.062;11.722;2023-02-28T15:15:41;8.52;;;3.75;;
47669;SDS011;33408;52.062;11.722;2023-02-28T15:18:14;8.05;;;3.85;;
47669;SDS011;33408;52.062;11.722;2023-02-28T15:20:44;7.30;;;3.95;;
47669;SDS011;33408;52.062;11.722;2023-02-28T15:23:13;7.35;;;3.67;;
47669;SDS011;33408;52.062;11.722;2023-02-28T15:25:41;8.23;;;4.20;;
47669;SDS011;33408;52.062;11.722;2023-02-28T15:28:10;6.78;;;3.60;;